createdAt,value
2023-02-03T00:00:02.069Z,100.00
2023-02-03T00:02:28.839Z,100.00
2023-02-03T00:04:55.674Z,100.00
2023-02-03T00:07:23.826Z,100.00
2023-02-03T00:09:50.560Z,100.00
2023-02-03T00:12:17.295Z,100.00
2023-02-03T00:14:44.036Z,100.00
2023-02-03T00:17:10.817Z,100.00
2023-02-03T00:19:37.565Z,100.00
2023-02-03T00:22:04.412Z,100.00
2023-02-03T00:24:32.526Z,100.00
2023-02-03T00:26:59.291Z,100.00
2023-02-03T00:29:26.254Z,100.00
2023-02-03T00:31:53.408Z,100.00
2023-02-03T00:34:20.559Z,100.00
2023-02-03T00:36:47.339Z,100.00
2023-02-03T00:39:14.439Z,100.00
2023-02-03T00:41:42.585Z,100.00
2023-02-03T00:44:09.370Z,100.00
2023-02-03T00:46:36.240Z,100.00
2023-02-03T00:49:03.487Z,100.00
2023-02-03T00:51:30.295Z,100.00
2023-02-03T00:53:57.089Z,100.00
2023-02-03T00:56:23.901Z,100.00
2023-02-03T00:58:52.322Z,100.00
2023-02-03T01:01:19.161Z,100.00
2023-02-03T01:03:45.922Z,100.00
2023-02-03T01:06:15.131Z,100.00
2023-02-03T01:08:42.312Z,100.00
2023-02-03T01:11:11.610Z,100.00
2023-02-03T01:13:38.572Z,100.00
2023-02-03T01:16:08.870Z,100.00
2023-02-03T01:18:35.735Z,100.00
2023-02-03T01:21:06.517Z,100.00
2023-02-03T01:23:33.324Z,100.00
2023-02-03T01:26:03.144Z,100.00
2023-02-03T01:28:29.929Z,100.00
2023-02-03T01:30:56.741Z,100.00
2023-02-03T01:33:24.964Z,100.00
2023-02-03T01:35:51.691Z,100.00
2023-02-03T01:38:18.444Z,100.00
2023-02-03T01:40:45.554Z,100.00
2023-02-03T01:43:28.371Z,100.00
2023-02-03T01:45:55.208Z,100.00
2023-02-03T01:48:21.981Z,100.00
2023-02-03T01:50:50.239Z,100.00
2023-02-03T01:53:16.989Z,100.00
2023-02-03T01:55:48.372Z,100.00
2023-02-03T01:58:18.361Z,100.00
2023-02-03T02:00:45.417Z,100.00
2023-02-03T02:03:13.498Z,100.00
2023-02-03T02:05:46.855Z,100.00
2023-02-03T02:08:16.720Z,100.00
2023-02-03T02:10:44.805Z,100.00
2023-02-03T02:13:12.565Z,100.00
2023-02-03T02:15:50.421Z,100.00
2023-02-03T02:18:33.040Z,100.00
2023-02-03T02:21:22.084Z,100.00
2023-02-03T02:24:25.406Z,100.00
2023-02-03T02:27:02.336Z,100.00
2023-02-03T02:29:51.791Z,100.00
2023-02-03T02:32:31.173Z,100.00
2023-02-03T02:35:08.086Z,100.00
2023-02-03T02:37:42.808Z,100.00
2023-02-03T02:40:19.608Z,100.00
2023-02-03T02:42:59.027Z,100.00
2023-02-03T02:45:30.674Z,100.00
2023-02-03T02:48:05.146Z,100.00
2023-02-03T02:50:38.194Z,100.00
2023-02-03T02:53:05.813Z,100.00
2023-02-03T02:55:35.096Z,100.00
2023-02-03T02:58:06.696Z,100.00
2023-02-03T03:00:35.491Z,100.00
2023-02-03T03:03:14.864Z,100.00
2023-02-03T03:05:44.311Z,100.00
2023-02-03T03:08:14.579Z,100.00
2023-02-03T03:10:43.307Z,100.00
2023-02-03T03:13:17.312Z,100.00
2023-02-03T03:15:45.573Z,100.00
2023-02-03T03:18:18.545Z,100.00
2023-02-03T03:20:48.285Z,100.00
2023-02-03T03:23:20.709Z,100.00
2023-02-03T03:25:55.046Z,100.00
2023-02-03T03:28:28.364Z,100.00
2023-02-03T03:30:55.387Z,100.00
2023-02-03T03:33:23.780Z,100.00
2023-02-03T03:35:57.063Z,100.00
2023-02-03T03:38:30.554Z,100.00
2023-02-03T03:41:04.722Z,100.00
2023-02-03T03:43:34.347Z,100.00
2023-02-03T03:46:07.740Z,100.00
2023-02-03T03:48:40.007Z,100.00
2023-02-03T03:51:12.533Z,100.00
2023-02-03T03:53:42.748Z,100.00
2023-02-03T03:56:15.738Z,100.00
2023-02-03T03:58:45.159Z,100.00
2023-02-03T04:01:14.185Z,100.00
2023-02-03T04:03:46.742Z,100.00
2023-02-03T04:06:14.010Z,100.00
2023-02-03T04:08:40.834Z,100.00
2023-02-03T04:11:07.991Z,100.00
2023-02-03T04:13:34.809Z,100.00
2023-02-03T04:16:01.767Z,100.00
2023-02-03T04:18:28.567Z,100.00
2023-02-03T04:20:56.800Z,100.00
2023-02-03T04:23:23.638Z,100.00
2023-02-03T04:25:50.382Z,100.00
2023-02-03T04:28:17.219Z,100.00
2023-02-03T04:30:44.083Z,100.00
2023-02-03T04:33:10.930Z,100.00
2023-02-03T04:35:37.929Z,100.00
2023-02-03T04:38:06.047Z,100.00
2023-02-03T04:40:34.907Z,100.00
2023-02-03T04:43:06.603Z,100.00
2023-02-03T04:45:33.500Z,100.00
2023-02-03T04:48:00.256Z,100.00
2023-02-03T04:50:27.262Z,100.00
2023-02-03T04:52:54.289Z,100.00
2023-02-03T04:55:22.365Z,100.00
2023-02-03T04:57:49.178Z,100.00
2023-02-03T05:00:16.420Z,100.00
2023-02-03T05:02:43.143Z,100.00
2023-02-03T05:05:09.881Z,100.00
2023-02-03T05:07:36.649Z,100.00
2023-02-03T05:10:04.282Z,100.00
2023-02-03T05:12:32.412Z,100.00
2023-02-03T05:15:01.994Z,100.00
2023-02-03T05:17:28.755Z,100.00
2023-02-03T05:19:55.608Z,100.00
2023-02-03T05:22:22.356Z,100.00
2023-02-03T05:24:49.125Z,100.00
2023-02-03T05:27:15.898Z,100.00
2023-02-03T05:29:44.135Z,100.00
2023-02-03T05:32:11.037Z,100.00
2023-02-03T05:34:37.833Z,100.00
2023-02-03T05:37:04.601Z,100.00
2023-02-03T05:39:31.427Z,100.00
2023-02-03T05:41:58.639Z,100.00
2023-02-03T05:44:27.807Z,100.00
2023-02-03T05:46:57.630Z,100.00
2023-02-03T05:49:24.726Z,100.00
2023-02-03T05:51:53.625Z,100.00
2023-02-03T05:54:20.428Z,100.00
2023-02-03T05:56:47.369Z,100.00
2023-02-03T05:59:14.110Z,100.00
2023-02-03T06:01:41.096Z,100.00
2023-02-03T06:04:10.140Z,100.00
2023-02-03T06:06:37.112Z,100.00
2023-02-03T06:09:06.104Z,100.00
2023-02-03T06:11:33.784Z,100.00
2023-02-03T06:14:00.805Z,100.00
2023-02-03T06:16:29.171Z,100.00
2023-02-03T06:18:56.777Z,100.00
2023-02-03T06:21:25.026Z,100.00
2023-02-03T06:23:51.801Z,100.00
2023-02-03T06:26:18.578Z,100.00
2023-02-03T06:28:45.325Z,100.00
2023-02-03T06:31:12.406Z,100.00
2023-02-03T06:33:39.288Z,100.00
2023-02-03T06:36:06.631Z,100.00
2023-02-03T06:38:34.873Z,100.00
2023-02-03T06:41:01.639Z,100.00
2023-02-03T06:43:28.456Z,100.00
2023-02-03T06:45:56.629Z,100.00
2023-02-03T06:48:23.403Z,100.00
2023-02-03T06:50:51.781Z,100.00
2023-02-03T06:53:20.081Z,100.00
2023-02-03T06:55:48.379Z,100.00
2023-02-03T06:58:15.534Z,100.00
2023-02-03T07:00:42.322Z,100.00
2023-02-03T07:03:09.074Z,100.00
2023-02-03T07:05:35.917Z,100.00
2023-02-03T07:08:02.927Z,100.00
2023-02-03T07:10:29.851Z,100.00
2023-02-03T07:13:03.928Z,100.00
2023-02-03T07:15:30.705Z,100.00
2023-02-03T07:17:59.041Z,100.00
2023-02-03T07:20:26.253Z,100.00
2023-02-03T07:22:54.551Z,100.00
2023-02-03T07:25:21.821Z,100.00
2023-02-03T07:27:48.694Z,100.00
2023-02-03T07:30:17.232Z,100.00
2023-02-03T07:32:47.712Z,100.00
2023-02-03T07:35:15.418Z,100.00
2023-02-03T07:37:42.706Z,100.00
2023-02-03T07:40:10.912Z,100.00
2023-02-03T07:42:41.053Z,100.00
2023-02-03T07:45:09.451Z,100.00
2023-02-03T07:47:37.948Z,100.00
2023-02-03T07:50:05.266Z,100.00
2023-02-03T07:52:32.329Z,100.00
2023-02-03T07:54:59.348Z,100.00
2023-02-03T07:57:26.742Z,100.00
2023-02-03T07:59:53.634Z,100.00
2023-02-03T08:02:20.617Z,100.00
2023-02-03T08:04:48.882Z,100.00
2023-02-03T08:07:15.772Z,100.00
2023-02-03T08:09:42.815Z,100.00
2023-02-03T08:12:09.620Z,100.00
2023-02-03T08:14:36.399Z,100.00
2023-02-03T08:17:04.294Z,100.00
2023-02-03T08:19:31.101Z,100.00
2023-02-03T08:21:59.231Z,100.00
2023-02-03T08:24:26.122Z,99.64
2023-02-03T08:26:53.189Z,98.83
2023-02-03T08:29:20.367Z,96.07
2023-02-03T08:31:47.651Z,95.72
2023-02-03T08:34:14.671Z,95.66
2023-02-03T08:36:41.448Z,95.10
2023-02-03T08:39:10.182Z,94.62
2023-02-03T08:41:37.307Z,93.21
2023-02-03T08:44:04.506Z,93.30
2023-02-03T08:46:31.417Z,92.03
2023-02-03T08:48:58.349Z,89.76
2023-02-03T08:51:25.166Z,89.56
2023-02-03T08:53:52.270Z,88.31
2023-02-03T08:56:20.731Z,88.24
2023-02-03T08:58:47.610Z,85.16
2023-02-03T09:01:15.571Z,84.37
2023-02-03T09:03:42.610Z,83.65
2023-02-03T09:06:10.685Z,84.28
2023-02-03T09:08:37.580Z,85.31
2023-02-03T09:11:09.707Z,85.08
2023-02-03T09:13:40.670Z,84.92
2023-02-03T09:16:09.834Z,83.94
2023-02-03T09:18:41.591Z,83.98
2023-02-03T09:21:20.902Z,83.56
2023-02-03T09:24:04.195Z,83.51
2023-02-03T09:26:31.761Z,83.32
2023-02-03T09:29:02.047Z,82.65
2023-02-03T09:31:31.247Z,82.56
2023-02-03T09:34:02.151Z,83.15
2023-02-03T09:36:29.505Z,81.51
2023-02-03T09:38:57.285Z,80.83
2023-02-03T09:41:42.045Z,79.38
2023-02-03T09:44:19.043Z,77.33
2023-02-03T09:46:48.976Z,76.33
2023-02-03T09:49:21.769Z,72.58
2023-02-03T09:51:52.878Z,72.45
2023-02-03T09:54:23.616Z,68.90
2023-02-03T09:56:52.766Z,61.30
2023-02-03T09:59:21.275Z,60.66
2023-02-03T10:01:56.089Z,62.47
2023-02-03T10:04:32.071Z,61.27
2023-02-03T10:07:09.683Z,59.48
2023-02-03T10:09:50.468Z,58.48
2023-02-03T10:12:43.537Z,57.79
2023-02-03T10:15:27.342Z,58.15
2023-02-03T10:17:57.259Z,55.92
2023-02-03T10:20:31.761Z,55.95
2023-02-03T10:23:02.669Z,56.53
2023-02-03T10:25:34.828Z,51.75
2023-02-03T10:28:04.908Z,52.58
2023-02-03T10:30:39.749Z,57.96
2023-02-03T10:33:11.199Z,64.38
2023-02-03T10:35:46.749Z,66.30
2023-02-03T10:38:19.828Z,66.73
2023-02-03T10:40:47.542Z,65.00
2023-02-03T10:43:14.400Z,63.28
2023-02-03T10:45:42.587Z,64.91
2023-02-03T10:48:15.922Z,65.38
2023-02-03T10:50:46.775Z,66.38
2023-02-03T10:53:25.298Z,66.39
2023-02-03T10:56:03.016Z,65.07
2023-02-03T10:58:31.279Z,64.85
2023-02-03T11:01:06.975Z,61.89
2023-02-03T11:03:34.210Z,60.95
2023-02-03T11:06:06.732Z,61.86
2023-02-03T11:08:34.384Z,63.14
2023-02-03T11:11:07.233Z,62.71
2023-02-03T11:13:34.486Z,61.83
2023-02-03T11:16:04.773Z,61.53
2023-02-03T11:18:42.061Z,61.95
2023-02-03T11:21:16.064Z,60.41
2023-02-03T11:23:47.408Z,59.45
2023-02-03T11:26:16.073Z,60.16
2023-02-03T11:28:45.167Z,54.88
2023-02-03T11:31:23.047Z,54.39
2023-02-03T11:33:56.436Z,56.07
2023-02-03T11:36:26.918Z,56.87
2023-02-03T11:39:09.384Z,54.97
2023-02-03T11:41:38.479Z,53.10
2023-02-03T11:44:11.487Z,52.50
2023-02-03T11:46:40.447Z,52.36
2023-02-03T11:49:24.913Z,51.77
2023-02-03T11:51:57.661Z,49.16
2023-02-03T11:54:36.375Z,49.63
2023-02-03T11:57:24.379Z,50.34
2023-02-03T12:00:03.300Z,50.84
2023-02-03T12:03:12.432Z,47.30
2023-02-03T12:06:03.630Z,46.90
2023-02-03T12:08:49.504Z,47.66
2023-02-03T12:11:29.264Z,47.46
2023-02-03T12:14:11.611Z,46.78
2023-02-03T12:17:08.693Z,47.87
2023-02-03T12:19:48.191Z,47.16
2023-02-03T12:22:24.100Z,47.70
2023-02-03T12:25:00.577Z,46.80
2023-02-03T12:27:38.829Z,47.46
2023-02-03T12:30:12.251Z,46.34
2023-02-03T12:32:46.678Z,48.12
2023-02-03T12:35:17.331Z,46.29
2023-02-03T12:37:50.328Z,47.12
2023-02-03T12:40:22.152Z,47.48
2023-02-03T12:42:55.696Z,47.47
2023-02-03T12:45:27.589Z,47.75
2023-02-03T12:47:58.825Z,48.36
2023-02-03T12:50:33.623Z,48.03
2023-02-03T12:53:06.246Z,47.75
2023-02-03T12:55:37.203Z,46.35
2023-02-03T12:58:07.095Z,47.06
2023-02-03T13:00:40.808Z,47.86
2023-02-03T13:03:16.238Z,47.85
2023-02-03T13:05:49.492Z,47.60
2023-02-03T13:08:25.354Z,47.95
2023-02-03T13:10:57.889Z,45.22
2023-02-03T13:13:34.534Z,46.72
2023-02-03T13:16:06.151Z,47.66
2023-02-03T13:18:36.771Z,46.36
2023-02-03T13:21:03.978Z,43.11
2023-02-03T13:23:32.503Z,45.79
2023-02-03T13:26:39.632Z,45.25
2023-02-03T13:29:31.238Z,46.61
2023-02-03T13:32:10.889Z,47.74
2023-02-03T13:35:01.376Z,44.51
2023-02-03T13:37:41.293Z,43.19
2023-02-03T13:40:29.180Z,46.72
2023-02-03T13:43:01.423Z,45.48
2023-02-03T13:45:32.221Z,47.57
2023-02-03T13:48:08.318Z,47.48
2023-02-03T13:50:39.180Z,47.73
2023-02-03T13:53:13.019Z,44.47
2023-02-03T13:55:43.627Z,43.39
2023-02-03T13:58:21.451Z,42.14
2023-02-03T14:01:07.641Z,41.80
2023-02-03T14:03:49.558Z,38.18
2023-02-03T14:06:54.965Z,40.89
2023-02-03T14:09:23.524Z,38.99
2023-02-03T14:11:52.787Z,42.18
2023-02-03T14:14:42.392Z,42.60
2023-02-03T14:18:03.221Z,49.22
2023-02-03T14:20:38.933Z,47.84
2023-02-03T14:23:15.009Z,49.60
2023-02-03T14:25:45.555Z,50.86
2023-02-03T14:28:17.402Z,51.12
2023-02-03T14:31:05.874Z,47.51
2023-02-03T14:34:06.374Z,47.04
2023-02-03T14:36:48.715Z,47.01
2023-02-03T14:39:57.426Z,45.07
2023-02-03T14:43:12.150Z,40.87
2023-02-03T14:46:21.960Z,42.03
2023-02-03T14:49:10.000Z,40.49
2023-02-03T14:51:55.521Z,41.99
2023-02-03T14:54:37.343Z,42.66
2023-02-03T14:57:20.286Z,41.33
2023-02-03T14:59:49.259Z,42.38
2023-02-03T15:02:19.942Z,41.37
2023-02-03T15:04:48.265Z,41.24
2023-02-03T15:07:35.774Z,45.14
2023-02-03T15:10:03.246Z,41.55
2023-02-03T15:12:35.896Z,42.74
2023-02-03T15:15:13.645Z,41.19
2023-02-03T15:17:40.530Z,44.82
2023-02-03T15:20:28.025Z,44.04
2023-02-03T15:22:55.746Z,44.29
2023-02-03T15:25:23.840Z,42.26
2023-02-03T15:27:51.125Z,42.30
2023-02-03T15:30:23.935Z,45.46
2023-02-03T15:33:00.751Z,50.47
2023-02-03T15:35:32.056Z,46.95
2023-02-03T15:38:06.481Z,52.28
2023-02-03T15:40:37.835Z,48.43
2023-02-03T15:43:14.596Z,49.48
2023-02-03T15:45:47.869Z,51.50
2023-02-03T15:48:19.652Z,55.32
2023-02-03T15:50:51.552Z,57.13
2023-02-03T15:53:24.139Z,56.15
2023-02-03T15:55:56.637Z,56.23
2023-02-03T15:58:26.477Z,56.62
2023-02-03T16:00:56.550Z,61.93
2023-02-03T16:03:33.424Z,56.54
2023-02-03T16:06:09.149Z,58.54
2023-02-03T16:08:39.141Z,56.12
2023-02-03T16:11:21.810Z,51.35
2023-02-03T16:13:48.531Z,53.55
2023-02-03T16:16:18.258Z,57.66
2023-02-03T16:18:51.935Z,60.89
2023-02-03T16:21:29.055Z,54.69
2023-02-03T16:23:55.889Z,59.36
2023-02-03T16:26:23.749Z,61.83
2023-02-03T16:29:11.263Z,63.18
2023-02-03T16:31:44.577Z,66.61
2023-02-03T16:34:14.697Z,62.18
2023-02-03T16:36:44.122Z,59.06
2023-02-03T16:39:12.276Z,59.98
2023-02-03T16:41:39.218Z,59.11
2023-02-03T16:44:05.922Z,62.13
2023-02-03T16:46:32.679Z,60.41
2023-02-03T16:48:59.415Z,58.86
2023-02-03T16:51:29.224Z,58.34
2023-02-03T16:53:57.345Z,61.14
2023-02-03T16:56:42.775Z,60.19
2023-02-03T16:59:29.807Z,60.45
2023-02-03T17:01:56.755Z,62.29
2023-02-03T17:04:23.615Z,61.81
2023-02-03T17:06:50.374Z,60.30
2023-02-03T17:09:19.098Z,61.33
2023-02-03T17:11:45.961Z,60.52
2023-02-03T17:14:12.854Z,64.09
2023-02-03T17:16:40.668Z,62.87
2023-02-03T17:19:10.145Z,62.35
2023-02-03T17:21:37.649Z,61.81
2023-02-03T17:24:04.753Z,63.23
2023-02-03T17:26:33.073Z,64.49
2023-02-03T17:28:59.911Z,64.95
2023-02-03T17:31:26.774Z,67.81
2023-02-03T17:33:53.549Z,66.90
2023-02-03T17:36:20.499Z,68.47
2023-02-03T17:55:17.116Z,74.38
2023-02-03T17:57:45.331Z,75.62
2023-02-03T18:00:12.971Z,76.36
2023-02-03T18:02:39.843Z,77.50
2023-02-03T18:05:07.446Z,79.61
2023-02-03T18:07:34.280Z,79.30
2023-02-03T18:10:01.104Z,78.98
2023-02-03T18:12:27.829Z,80.36
2023-02-03T18:14:57.488Z,81.54
2023-02-03T18:17:24.465Z,82.95
2023-02-03T18:19:55.727Z,86.26
2023-02-03T18:22:23.083Z,88.64
2023-02-03T18:24:49.813Z,91.68
2023-02-03T18:27:16.634Z,92.54
2023-02-03T18:29:44.634Z,94.74
2023-02-03T18:32:13.329Z,97.21
2023-02-03T18:34:40.331Z,98.00
2023-02-03T18:37:07.310Z,98.85
2023-02-03T18:39:34.221Z,100.00
2023-02-03T18:42:00.976Z,100.00
2023-02-03T18:44:27.690Z,100.00
2023-02-03T18:46:54.859Z,100.00
2023-02-03T18:49:23.194Z,100.00
2023-02-03T18:51:49.941Z,100.00
2023-02-03T18:54:16.756Z,100.00
2023-02-03T18:56:43.640Z,100.00
2023-02-03T18:59:11.220Z,100.00
2023-02-03T19:01:38.804Z,100.00
2023-02-03T19:04:06.184Z,100.00
2023-02-03T19:06:35.323Z,100.00
2023-02-03T19:09:03.868Z,100.00
2023-02-03T19:11:30.723Z,100.00
2023-02-03T19:13:57.471Z,100.00
2023-02-03T19:16:24.261Z,100.00
2023-02-03T19:18:51.065Z,100.00
2023-02-03T19:21:17.796Z,100.00
2023-02-03T19:23:45.898Z,100.00
2023-02-03T19:26:12.681Z,100.00
2023-02-03T19:28:40.730Z,100.00
2023-02-03T19:31:09.255Z,100.00
2023-02-03T19:33:36.244Z,100.00
2023-02-03T19:36:03.187Z,100.00
2023-02-03T19:38:30.004Z,100.00
2023-02-03T19:40:58.134Z,100.00
2023-02-03T19:43:24.987Z,100.00
2023-02-03T19:45:51.942Z,100.00
2023-02-03T19:48:18.970Z,100.00
2023-02-03T19:50:46.643Z,100.00
2023-02-03T19:53:14.921Z,100.00
2023-02-03T19:55:42.673Z,100.00
2023-02-03T19:58:11.583Z,100.00
2023-02-03T20:00:38.696Z,100.00
2023-02-03T20:03:05.531Z,100.00
2023-02-03T20:05:32.359Z,100.00
2023-02-03T20:07:59.161Z,100.00
2023-02-03T20:10:25.977Z,100.00
2023-02-03T20:12:52.866Z,100.00
2023-02-03T20:15:21.221Z,100.00
2023-02-03T20:17:47.989Z,100.00
2023-02-03T20:20:15.497Z,100.00
2023-02-03T20:22:42.216Z,100.00
2023-02-03T20:25:09.375Z,100.00
2023-02-03T20:27:36.379Z,100.00
2023-02-03T20:30:03.337Z,100.00
2023-02-03T20:32:31.632Z,100.00
2023-02-03T20:34:58.401Z,100.00
2023-02-03T20:37:25.240Z,100.00
2023-02-03T20:39:51.964Z,100.00
2023-02-03T20:42:18.765Z,100.00
2023-02-03T20:44:45.792Z,100.00
2023-02-03T20:47:14.836Z,100.00
2023-02-03T20:49:42.944Z,100.00
2023-02-03T20:52:12.463Z,100.00
2023-02-03T20:54:39.600Z,100.00
2023-02-03T20:57:11.566Z,100.00
2023-02-03T20:59:38.485Z,100.00
2023-02-03T21:02:15.292Z,100.00
2023-02-03T21:04:43.517Z,100.00
2023-02-03T21:07:13.520Z,100.00
2023-02-03T21:09:40.471Z,100.00
2023-02-03T21:12:11.724Z,100.00
2023-02-03T21:14:42.577Z,100.00
2023-02-03T21:17:17.163Z,100.00
2023-02-03T21:19:45.596Z,100.00
2023-02-03T21:22:18.080Z,100.00
2023-02-03T21:24:50.968Z,100.00
2023-02-03T21:27:25.022Z,100.00
2023-02-03T21:29:52.531Z,100.00
2023-02-03T21:32:19.291Z,100.00
2023-02-03T21:34:48.443Z,100.00
2023-02-03T21:37:39.504Z,100.00
2023-02-03T21:40:28.927Z,100.00
2023-02-03T21:42:56.295Z,100.00
2023-02-03T21:45:41.454Z,100.00
2023-02-03T21:48:31.193Z,100.00
2023-02-03T21:51:02.709Z,100.00
2023-02-03T21:53:33.398Z,100.00
2023-02-03T21:56:15.962Z,100.00
2023-02-03T21:58:43.660Z,100.00
2023-02-03T22:01:11.942Z,100.00
2023-02-03T22:03:40.000Z,100.00
2023-02-03T22:06:18.616Z,100.00
2023-02-03T22:08:47.554Z,100.00
2023-02-03T22:11:15.375Z,100.00
2023-02-03T22:13:42.524Z,100.00
2023-02-03T22:16:09.412Z,100.00
2023-02-03T22:18:36.372Z,100.00
2023-02-03T22:21:03.297Z,100.00
2023-02-03T22:23:31.460Z,100.00
2023-02-03T22:25:58.261Z,100.00
2023-02-03T22:28:25.086Z,100.00
2023-02-03T22:30:52.018Z,100.00
2023-02-03T22:33:19.058Z,100.00
2023-02-03T22:35:45.918Z,100.00
2023-02-03T22:38:12.752Z,100.00
2023-02-03T22:40:40.844Z,100.00
2023-02-03T22:43:07.813Z,100.00
2023-02-03T22:45:34.557Z,100.00
2023-02-03T22:48:01.335Z,100.00
2023-02-03T22:50:35.470Z,100.00
2023-02-03T22:53:03.261Z,100.00
2023-02-03T22:55:30.399Z,100.00
2023-02-03T22:57:58.665Z,100.00
2023-02-03T23:00:26.237Z,100.00
2023-02-03T23:02:53.550Z,100.00
2023-02-03T23:05:20.825Z,100.00
2023-02-03T23:07:49.323Z,100.00
2023-02-03T23:10:18.091Z,100.00
2023-02-03T23:12:44.989Z,100.00
2023-02-03T23:15:13.753Z,100.00
2023-02-03T23:17:41.000Z,100.00
2023-02-03T23:20:09.952Z,100.00
2023-02-03T23:22:36.790Z,100.00
2023-02-03T23:25:03.579Z,100.00
2023-02-03T23:27:30.684Z,100.00
2023-02-03T23:29:57.536Z,100.00
2023-02-03T23:32:25.671Z,100.00
2023-02-03T23:34:52.380Z,100.00
2023-02-03T23:37:19.474Z,100.00
2023-02-03T23:39:46.367Z,100.00
2023-02-03T23:42:13.082Z,100.00
2023-02-03T23:44:40.670Z,100.00
2023-02-03T23:47:07.700Z,100.00
2023-02-03T23:49:35.929Z,100.00
2023-02-03T23:52:02.657Z,100.00
2023-02-03T23:54:29.443Z,100.00
2023-02-03T23:56:56.385Z,100.00
2023-02-03T23:59:23.638Z,100.00
